Time;durP1;ratioP1;P1;durP2;ratioP2;P2;SDS_P1;SDS_P2;PMS_P1;PMS_P2;Temp;Humidity;BMP_temperature;BMP_pressure;BME280_temperature;BME280_humidity;BME280_pressure;Samples;Min_cycle;Max_cycle;Signal;HPM_P1;HPM_P2
2022/05/24 00:00:34;;;;;;;11.83;1.60;;;;;;;;;;5076862;28;20036;-45
2022/05/24 00:03:01;;;;;;;14.63;1.95;;;;;;;;;;5076871;28;20460;-45
2022/05/24 00:05:28;;;;;;;14.15;1.80;;;;;;;;;;5076667;28;20032;-43
2022/05/24 00:07:54;;;;;;;3.60;1.13;;;;;;;;;;5076335;28;20024;-43
2022/05/24 00:10:22;;;;;;;11.75;1.50;;;;;;;;;;5076568;28;20065;-44
2022/05/24 00:12:48;;;;;;;2.35;1.08;;;;;;;;;;5076315;28;20027;-44
2022/05/24 00:15:19;;;;;;;3.80;1.38;;;;;;;;;;5076469;28;20032;-43
2022/05/24 00:17:54;;;;;;;11.90;1.27;;;;;;;;;;5076574;28;20024;-43
2022/05/24 00:20:25;;;;;;;9.48;1.20;;;;;;;;;;5076093;28;20032;-52
2022/05/24 00:22:51;;;;;;;3.03;1.57;;;;;;;;;;5076314;28;20032;-52
2022/05/24 00:25:17;;;;;;;11.00;1.70;;;;;;;;;;5076359;28;20252;-48
2022/05/24 00:27:44;;;;;;;2.45;0.90;;;;;;;;;;5076407;28;20031;-47
2022/05/24 00:30:10;;;;;;;5.50;1.10;;;;;;;;;;5076100;28;20021;-47
2022/05/24 00:32:37;;;;;;;2.85;1.45;;;;;;;;;;5075121;28;20024;-57
2022/05/24 00:35:05;;;;;;;2.38;1.00;;;;;;;;;;5076234;28;20025;-58
2022/05/24 00:37:33;;;;;;;2.47;0.82;;;;;;;;;;5076200;28;20033;-61
2022/05/24 00:39:59;;;;;;;2.28;0.90;;;;;;;;;;5075959;28;20021;-63
2022/05/24 00:42:28;;;;;;;6.32;1.10;;;;;;;;;;5075814;28;20040;-64
2022/05/24 00:44:54;;;;;;;1.80;1.00;;;;;;;;;;5075913;28;20024;-45
2022/05/24 00:47:28;;;;;;;2.35;0.93;;;;;;;;;;5075957;28;20063;-45
2022/05/24 00:49:56;;;;;;;1.23;0.93;;;;;;;;;;5075712;28;20098;-61
2022/05/24 00:52:28;;;;;;;3.30;1.20;;;;;;;;;;5075905;28;20103;-62
2022/05/24 00:54:54;;;;;;;;;;;;;;;;;;5076034;28;20024;-45
2022/05/24 00:57:29;;;;;;;1.75;0.90;;;;;;;;;;5075929;28;20552;-45
2022/05/24 01:00:07;;;;;;;2.53;1.20;;;;;;;;;;5075594;28;20082;-62
2022/05/24 01:02:37;;;;;;;2.70;1.25;;;;;;;;;;5075573;28;20032;-54
2022/05/24 01:05:07;;;;;;;1.10;0.90;;;;;;;;;;5075470;28;20476;-64
2022/05/24 01:07:33;;;;;;;1.95;1.00;;;;;;;;;;5075467;28;20028;-45
2022/05/24 01:10:04;;;;;;;1.40;1.00;;;;;;;;;;5075710;28;20024;-45
2022/05/24 01:12:35;;;;;;;2.08;1.00;;;;;;;;;;5075712;28;20496;-44
2022/05/24 01:15:04;;;;;;;10.52;1.50;;;;;;;;;;5075522;28;20103;-64
2022/05/24 01:17:30;;;;;;;3.65;1.10;;;;;;;;;;5075262;28;20024;-64
2022/05/24 01:19:56;;;;;;;1.42;1.08;;;;;;;;;;5075091;28;20108;-53
2022/05/24 01:22:45;;;;;;;1.63;1.10;;;;;;;;;;5074954;28;20051;-49
2022/05/24 01:25:30;;;;;;;5.13;1.30;;;;;;;;;;5075102;28;20036;-63
2022/05/24 01:27:56;;;;;;;1.73;1.08;;;;;;;;;;5075157;28;20499;-46
2022/05/24 01:30:25;;;;;;;4.75;1.38;;;;;;;;;;5075235;28;20058;-58
2022/05/24 01:38:22;;;;;;;3.63;1.40;;;;;;;;;;5075186;28;20034;-53
2022/05/24 01:40:49;;;;;;;3.55;1.33;;;;;;;;;;5074917;28;20418;-61
2022/05/24 01:43:18;;;;;;;2.53;1.00;;;;;;;;;;5074718;28;20051;-61
2022/05/24 01:45:51;;;;;;;5.38;1.50;;;;;;;;;;5075036;28;20021;-61
2022/05/24 01:48:18;;;;;;;3.80;1.45;;;;;;;;;;5074780;28;20025;-59
2022/05/24 01:50:47;;;;;;;1.48;1.30;;;;;;;;;;5074590;28;20028;-58
2022/05/24 01:53:16;;;;;;;4.90;1.30;;;;;;;;;;5074643;28;20041;-61
2022/05/24 01:55:45;;;;;;;7.78;1.67;;;;;;;;;;5074441;28;20020;-59
2022/05/24 01:58:13;;;;;;;3.67;1.70;;;;;;;;;;5074572;28;20035;-44
2022/05/24 02:00:41;;;;;;;2.03;1.42;;;;;;;;;;5074287;28;20074;-61
2022/05/24 02:03:10;;;;;;;5.57;1.60;;;;;;;;;;5074272;28;20070;-60
2022/05/24 02:05:37;;;;;;;2.35;1.70;;;;;;;;;;5074449;28;20054;-60
2022/05/24 02:08:07;;;;;;;5.80;1.63;;;;;;;;;;5074176;28;20028;-45
2022/05/24 02:10:36;;;;;;;2.10;1.70;;;;;;;;;;5073978;28;20148;-60
2022/05/24 02:13:02;;;;;;;3.50;1.88;;;;;;;;;;5074174;28;20028;-46
2022/05/24 02:15:30;;;;;;;2.78;1.80;;;;;;;;;;5074080;28;20028;-45
2022/05/24 02:18:02;;;;;;;3.22;2.25;;;;;;;;;;5074120;28;20053;-61
2022/05/24 02:20:30;;;;;;;2.20;1.90;;;;;;;;;;5074022;28;20032;-45
2022/05/24 02:22:56;;;;;;;3.28;2.10;;;;;;;;;;5073778;28;20153;-62
2022/05/24 02:25:30;;;;;;;5.78;1.98;;;;;;;;;;5073754;28;20101;-44
2022/05/24 02:27:56;;;;;;;3.20;1.90;;;;;;;;;;5074051;28;20019;-65
2022/05/24 02:30:24;;;;;;;5.55;2.30;;;;;;;;;;5074354;28;20067;-62
2022/05/24 02:32:50;;;;;;;5.88;2.00;;;;;;;;;;5073949;28;20560;-62
2022/05/24 02:35:16;;;;;;;3.28;2.10;;;;;;;;;;5073902;28;20035;-44
2022/05/24 02:37:42;;;;;;;5.20;2.30;;;;;;;;;;5073919;28;20017;-44
2022/05/24 02:42:56;;;;;;;5.93;1.98;;;;;;;;;;5073569;28;20047;-47
2022/05/24 02:45:23;;;;;;;4.15;2.10;;;;;;;;;;5055603;28;20403;-61
2022/05/24 02:47:49;;;;;;;3.40;2.30;;;;;;;;;;5073781;28;20032;-61
2022/05/24 02:50:15;;;;;;;8.60;2.50;;;;;;;;;;5073470;28;20070;-56
2022/05/24 02:52:42;;;;;;;6.03;2.05;;;;;;;;;;5073344;28;20495;-45
2022/05/24 02:55:16;;;;;;;2.80;1.75;;;;;;;;;;5073290;28;20028;-44
2022/05/24 02:57:42;;;;;;;8.00;2.92;;;;;;;;;;5073819;28;20042;-59
2022/05/24 03:00:14;;;;;;;5.43;2.15;;;;;;;;;;5073485;28;20479;-44
2022/05/24 03:02:40;;;;;;;1.90;1.67;;;;;;;;;;5073507;28;20036;-44
2022/05/24 03:05:10;;;;;;;2.53;1.92;;;;;;;;;;5073537;28;20031;-58
2022/05/24 03:10:21;;;;;;;4.97;2.00;;;;;;;;;;5073531;28;20055;-61
2022/05/24 03:15:37;;;;;;;6.45;2.30;;;;;;;;;;5073517;28;20031;-45
2022/05/24 03:18:03;;;;;;;5.78;2.10;;;;;;;;;;5073657;28;20035;-63
2022/05/24 03:20:29;;;;;;;4.68;2.10;;;;;;;;;;5073167;28;20029;-63
2022/05/24 03:22:55;;;;;;;3.63;2.00;;;;;;;;;;5073176;28;20484;-63
2022/05/24 03:25:21;;;;;;;6.88;2.10;;;;;;;;;;5073271;28;20028;-45
2022/05/24 03:27:50;;;;;;;3.65;1.85;;;;;;;;;;5073440;28;20472;-62
2022/05/24 03:30:16;;;;;;;4.85;1.90;;;;;;;;;;5073308;28;20024;-61
2022/05/24 03:32:42;;;;;;;2.22;1.65;;;;;;;;;;5073189;28;20074;-64
2022/05/24 03:35:12;;;;;;;5.20;1.70;;;;;;;;;;5073099;28;20035;-59
2022/05/24 03:37:43;;;;;;;3.28;1.52;;;;;;;;;;5073213;28;20039;-59
2022/05/24 03:40:10;;;;;;;3.85;1.50;;;;;;;;;;5073510;28;20461;-66
2022/05/24 03:42:36;;;;;;;2.40;1.58;;;;;;;;;;5073113;28;20038;-62
2022/05/24 03:45:04;;;;;;;6.75;1.75;;;;;;;;;;5072913;28;20491;-51
2022/05/24 03:47:30;;;;;;;2.47;1.65;;;;;;;;;;5073198;28;20028;-45
2022/05/24 03:49:56;;;;;;;2.75;1.85;;;;;;;;;;5072936;28;20070;-67
2022/05/24 03:52:22;;;;;;;2.85;2.22;;;;;;;;;;5073235;28;20109;-68
2022/05/24 03:54:48;;;;;;;4.10;2.63;;;;;;;;;;5072814;28;20495;-50
2022/05/24 04:00:02;;;;;;;5.07;1.83;;;;;;;;;;5073303;28;20126;-49
2022/05/24 04:02:30;;;;;;;4.80;1.70;;;;;;;;;;5052427;28;20037;-66
2022/05/24 04:04:59;;;;;;;5.75;2.03;;;;;;;;;;5052753;28;20043;-65
2022/05/24 04:07:25;;;;;;;6.13;1.60;;;;;;;;;;5035909;28;20079;-47
2022/05/24 04:09:51;;;;;;;3.30;1.40;;;;;;;;;;5056548;28;20019;-67
2022/05/24 04:12:17;;;;;;;2.45;1.30;;;;;;;;;;5056284;28;20086;-45
2022/05/24 04:14:43;;;;;;;2.05;1.35;;;;;;;;;;5056434;28;20019;-62
2022/05/24 04:17:12;;;;;;;8.95;1.95;;;;;;;;;;5056552;28;20431;-67
2022/05/24 04:19:38;;;;;;;4.25;1.58;;;;;;;;;;5057016;28;20043;-65
2022/05/24 04:22:04;;;;;;;3.72;1.40;;;;;;;;;;5056681;28;20033;-45
2022/05/24 04:24:30;;;;;;;4.68;1.60;;;;;;;;;;5056273;28;20079;-62
2022/05/24 04:26:59;;;;;;;5.80;1.00;;;;;;;;;;5038534;28;20079;-62
2022/05/24 04:29:32;;;;;;;3.38;1.17;;;;;;;;;;5056265;28;20396;-61
2022/05/24 04:31:58;;;;;;;3.08;1.40;;;;;;;;;;5056436;28;20017;-46
2022/05/24 04:34:24;;;;;;;1.20;1.10;;;;;;;;;;5056170;28;20103;-63
2022/05/24 04:36:50;;;;;;;4.38;1.40;;;;;;;;;;5056346;28;20025;-63
2022/05/24 04:39:17;;;;;;;1.05;0.73;;;;;;;;;;5056181;28;20028;-62
2022/05/24 04:44:37;;;;;;;6.03;1.50;;;;;;;;;;5056443;28;20048;-46
2022/05/24 04:47:09;;;;;;;4.47;1.48;;;;;;;;;;5056236;28;20032;-65
2022/05/24 04:49:37;;;;;;;1.33;1.00;;;;;;;;;;5055997;28;20029;-66
2022/05/24 04:52:04;;;;;;;1.25;1.00;;;;;;;;;;5055868;28;20033;-61
2022/05/24 04:54:30;;;;;;;3.22;1.60;;;;;;;;;;5055705;28;20108;-63
2022/05/24 04:56:56;;;;;;;7.90;4.85;;;;;;;;;;5055701;28;20396;-61
2022/05/24 04:59:22;;;;;;;8.13;5.03;;;;;;;;;;5055815;28;20358;-62
2022/05/24 05:01:51;;;;;;;11.63;4.68;;;;;;;;;;5055037;28;20040;-61
2022/05/24 05:04:17;;;;;;;11.13;7.03;;;;;;;;;;5055576;28;20075;-47
2022/05/24 05:06:44;;;;;;;13.32;5.25;;;;;;;;;;5055969;28;20024;-61
2022/05/24 05:09:11;;;;;;;22.88;9.55;;;;;;;;;;5055459;28;20032;-61
2022/05/24 05:11:39;;;;;;;23.58;12.25;;;;;;;;;;5055283;28;20404;-61
2022/05/24 05:14:10;;;;;;;18.45;8.60;;;;;;;;;;5055420;28;20503;-61
2022/05/24 05:16:37;;;;;;;19.88;6.45;;;;;;;;;;5055350;28;20028;-62
2022/05/24 05:19:12;;;;;;;23.45;10.32;;;;;;;;;;5054877;28;20028;-59
2022/05/24 05:21:39;;;;;;;17.17;6.05;;;;;;;;;;5055428;28;20021;-58
2022/05/24 05:24:07;;;;;;;15.23;4.00;;;;;;;;;;5055255;28;20116;-59
2022/05/24 05:26:36;;;;;;;11.05;4.20;;;;;;;;;;5055040;28;20021;-47
2022/05/24 05:29:02;;;;;;;7.93;3.25;;;;;;;;;;5055054;28;20032;-59
2022/05/24 05:31:28;;;;;;;4.75;2.70;;;;;;;;;;5055224;28;20021;-60
2022/05/24 05:33:55;;;;;;;7.95;2.78;;;;;;;;;;5055014;28;20542;-59
2022/05/24 05:36:22;;;;;;;8.90;2.40;;;;;;;;;;5054944;28;20032;-59
2022/05/24 05:38:48;;;;;;;5.43;2.55;;;;;;;;;;5036843;28;20029;-47
2022/05/24 05:41:18;;;;;;;15.43;4.45;;;;;;;;;;5055061;28;20490;-60
2022/05/24 05:43:44;;;;;;;8.68;4.57;;;;;;;;;;5054641;28;20061;-53
2022/05/24 05:46:11;;;;;;;5.88;2.20;;;;;;;;;;5054838;28;20027;-62
2022/05/24 05:48:37;;;;;;;5.07;1.83;;;;;;;;;;5054575;28;20033;-62
2022/05/24 05:51:04;;;;;;;5.05;2.08;;;;;;;;;;5054465;28;20025;-61
2022/05/24 05:53:31;;;;;;;3.03;1.80;;;;;;;;;;5054572;28;20370;-47
2022/05/24 05:55:57;;;;;;;3.92;1.80;;;;;;;;;;5054731;28;20044;-47
2022/05/24 05:58:28;;;;;;;3.33;1.70;;;;;;;;;;5054519;28;20071;-60
2022/05/24 06:00:54;;;;;;;5.05;1.83;;;;;;;;;;5054900;28;20028;-47
2022/05/24 06:03:23;;;;;;;8.80;2.03;;;;;;;;;;5054479;28;20543;-59
2022/05/24 06:05:51;;;;;;;7.55;1.90;;;;;;;;;;5054258;28;20104;-58
2022/05/24 06:08:17;;;;;;;8.77;2.20;;;;;;;;;;5054679;28;20496;-55
2022/05/24 06:10:44;;;;;;;7.43;2.55;;;;;;;;;;5054029;28;20045;-47
2022/05/24 06:13:10;;;;;;;2.30;1.60;;;;;;;;;;5054239;28;20101;-60
2022/05/24 06:15:37;;;;;;;4.97;1.65;;;;;;;;;;5054206;28;20029;-59
2022/05/24 06:18:04;;;;;;;8.48;2.08;;;;;;;;;;5054304;28;20040;-58
2022/05/24 06:20:31;;;;;;;4.10;2.22;;;;;;;;;;5054087;28;20025;-47
2022/05/24 06:23:00;;;;;;;4.05;2.00;;;;;;;;;;5053858;28;20068;-60
2022/05/24 06:25:28;;;;;;;4.65;2.13;;;;;;;;;;5054250;28;20405;-47
2022/05/24 06:27:54;;;;;;;4.90;2.15;;;;;;;;;;5054026;28;20044;-59
2022/05/24 06:30:22;;;;;;;5.03;1.70;;;;;;;;;;5053252;28;20354;-58
2022/05/24 06:32:48;;;;;;;3.83;1.85;;;;;;;;;;5054024;28;20078;-59
2022/05/24 06:35:15;;;;;;;6.97;2.08;;;;;;;;;;5053641;28;20033;-56
2022/05/24 06:37:41;;;;;;;7.18;3.67;;;;;;;;;;5054021;28;20024;-55
2022/05/24 06:40:07;;;;;;;5.15;3.42;;;;;;;;;;5053874;28;20029;-55
2022/05/24 06:42:36;;;;;;;7.22;4.10;;;;;;;;;;5053772;28;20103;-55
2022/05/24 06:45:02;;;;;;;7.28;4.70;;;;;;;;;;5053952;28;20032;-57
2022/05/24 06:47:29;;;;;;;16.98;9.30;;;;;;;;;;5053531;28;20025;-45
2022/05/24 06:49:55;;;;;;;9.38;4.93;;;;;;;;;;5053906;28;20059;-51
2022/05/24 06:52:22;;;;;;;7.47;3.63;;;;;;;;;;5053665;28;20033;-56
2022/05/24 06:54:48;;;;;;;5.10;2.95;;;;;;;;;;5053604;28;20051;-61
2022/05/24 06:57:14;;;;;;;5.00;2.47;;;;;;;;;;5053622;28;20029;-59
2022/05/24 07:02:25;;;;;;;20.17;6.00;;;;;;;;;;5053754;28;20056;-49
2022/05/24 07:04:58;;;;;;;7.05;3.72;;;;;;;;;;5053607;28;20035;-60
2022/05/24 07:07:24;;;;;;;5.18;2.33;;;;;;;;;;5035370;28;20480;-58
2022/05/24 07:09:51;;;;;;;8.60;2.30;;;;;;;;;;5053264;28;20086;-59
2022/05/24 07:12:18;;;;;;;5.00;2.60;;;;;;;;;;5053046;28;20045;-62
2022/05/24 07:14:44;;;;;;;4.00;1.70;;;;;;;;;;5053257;28;20025;-59
2022/05/24 07:17:11;;;;;;;6.72;2.38;;;;;;;;;;5053132;28;20377;-64
2022/05/24 07:19:39;;;;;;;8.25;1.90;;;;;;;;;;5053198;28;20032;-60
2022/05/24 07:22:08;;;;;;;4.28;1.60;;;;;;;;;;5053511;28;20032;-61
2022/05/24 07:24:35;;;;;;;7.40;1.60;;;;;;;;;;5053211;28;20051;-47
2022/05/24 07:27:04;;;;;;;8.40;1.85;;;;;;;;;;5053588;28;20028;-62
2022/05/24 07:29:32;;;;;;;9.10;1.65;;;;;;;;;;5053258;28;20025;-59
2022/05/24 07:31:58;;;;;;;6.10;2.13;;;;;;;;;;5053074;28;20034;-61
2022/05/24 07:34:24;;;;;;;7.65;1.73;;;;;;;;;;5053275;28;20104;-55
2022/05/24 07:36:50;;;;;;;6.88;1.30;;;;;;;;;;5053238;28;20021;-60
2022/05/24 07:39:17;;;;;;;2.58;1.20;;;;;;;;;;5053084;28;20025;-46
2022/05/24 07:47:20;;;;;;;3.05;1.13;;;;;;;;;;5057466;28;20094;-61
2022/05/24 07:49:51;;;;;;;5.85;1.50;;;;;;;;;;5057035;28;20021;-47
2022/05/24 07:52:17;;;;;;;4.45;1.30;;;;;;;;;;5057252;28;20056;-62
2022/05/24 07:54:43;;;;;;;7.25;1.67;;;;;;;;;;5056748;28;20039;-51
2022/05/24 07:57:09;;;;;;;3.10;1.10;;;;;;;;;;5056745;28;20067;-47
2022/05/24 07:59:36;;;;;;;3.85;1.23;;;;;;;;;;5056874;28;20111;-63
2022/05/24 08:02:02;;;;;;;5.15;1.33;;;;;;;;;;5056825;28;20071;-62
2022/05/24 08:04:28;;;;;;;6.93;1.50;;;;;;;;;;5056943;28;20108;-60
2022/05/24 08:06:55;;;;;;;5.00;1.45;;;;;;;;;;5056832;28;20377;-45
2022/05/24 08:09:26;;;;;;;2.75;1.23;;;;;;;;;;5056685;28;20049;-61
2022/05/24 08:11:52;;;;;;;3.92;1.15;;;;;;;;;;5056421;28;20041;-61
2022/05/24 08:14:19;;;;;;;4.32;1.25;;;;;;;;;;5056441;28;20032;-60
2022/05/24 08:16:45;;;;;;;6.32;1.35;;;;;;;;;;5056601;28;20029;-45
2022/05/24 08:19:11;;;;;;;7.63;2.28;;;;;;;;;;5056540;28;20036;-45
2022/05/24 08:21:38;;;;;;;2.20;1.13;;;;;;;;;;5056269;28;20041;-45
2022/05/24 08:24:04;;;;;;;3.92;1.10;;;;;;;;;;5056148;28;20446;-58
2022/05/24 08:26:30;;;;;;;5.80;1.23;;;;;;;;;;5056141;28;20104;-45
2022/05/24 08:28:56;;;;;;;4.70;1.55;;;;;;;;;;5056110;28;20041;-46
2022/05/24 08:31:23;;;;;;;2.58;1.30;;;;;;;;;;5056366;28;20380;-61
2022/05/24 08:33:50;;;;;;;6.20;1.30;;;;;;;;;;5056154;28;20025;-56
2022/05/24 08:36:16;;;;;;;5.20;1.98;;;;;;;;;;5056313;28;20389;-58
2022/05/24 08:38:43;;;;;;;3.45;1.50;;;;;;;;;;5056073;28;20024;-47
2022/05/24 08:41:16;;;;;;;4.45;1.58;;;;;;;;;;5056098;28;20021;-61
2022/05/24 08:43:54;;;;;;;3.30;1.30;;;;;;;;;;5055912;28;20473;-61
2022/05/24 08:49:16;;;;;;;3.78;1.60;;;;;;;;;;5056507;28;20040;-59
2022/05/24 08:51:50;;;;;;;2.78;1.48;;;;;;;;;;5056037;28;20496;-60
2022/05/24 08:54:17;;;;;;;6.45;1.65;;;;;;;;;;5055037;28;20021;-46
2022/05/24 08:56:56;;;;;;;6.90;1.55;;;;;;;;;;5055712;28;20116;-62
2022/05/24 08:59:27;;;;;;;2.88;1.67;;;;;;;;;;5055845;28;20025;-62
2022/05/24 09:01:54;;;;;;;7.18;1.67;;;;;;;;;;5055652;28;20029;-46
2022/05/24 09:04:20;;;;;;;7.10;1.88;;;;;;;;;;5055298;28;20047;-56
2022/05/24 09:06:46;;;;;;;4.82;2.00;;;;;;;;;;5055760;28;20075;-48
2022/05/24 09:09:24;;;;;;;7.25;1.90;;;;;;;;;;5055519;28;20469;-66
2022/05/24 09:11:50;;;;;;;9.13;2.13;;;;;;;;;;5055363;28;20037;-67
2022/05/24 09:14:22;;;;;;;6.38;1.80;;;;;;;;;;5055410;28;20034;-47
2022/05/24 09:17:07;;;;;;;6.90;1.88;;;;;;;;;;5055341;28;20104;-47
2022/05/24 09:19:37;;;;;;;3.42;1.83;;;;;;;;;;5055351;28;20024;-69
2022/05/24 09:22:03;;;;;;;4.78;2.03;;;;;;;;;;5055392;28;20315;-47
2022/05/24 09:24:32;;;;;;;8.32;2.30;;;;;;;;;;5055279;28;20470;-47
2022/05/24 09:27:03;;;;;;;3.63;2.10;;;;;;;;;;5054865;28;20027;-68
2022/05/24 09:29:31;;;;;;;5.50;2.23;;;;;;;;;;5055097;28;20058;-61
2022/05/24 09:31:58;;;;;;;6.57;1.95;;;;;;;;;;5055157;28;20579;-68
2022/05/24 09:34:29;;;;;;;6.00;2.30;;;;;;;;;;5055154;28;20043;-47
2022/05/24 09:36:58;;;;;;;9.35;2.00;;;;;;;;;;5054863;28;20038;-65
2022/05/24 09:39:30;;;;;;;6.43;2.13;;;;;;;;;;5054863;28;20199;-67
2022/05/24 09:42:02;;;;;;;6.95;2.40;;;;;;;;;;5054853;28;20044;-67
2022/05/24 09:44:32;;;;;;;4.30;2.53;;;;;;;;;;5054799;28;20067;-61
2022/05/24 09:46:58;;;;;;;5.53;1.92;;;;;;;;;;5054928;28;20039;-68
2022/05/24 09:49:35;;;;;;;7.18;2.17;;;;;;;;;;5054713;28;20045;-48
2022/05/24 09:52:11;;;;;;;3.05;2.03;;;;;;;;;;5055051;28;20098;-69
2022/05/24 09:54:49;;;;;;;5.70;2.58;;;;;;;;;;5054652;28;20480;-68
2022/05/24 09:57:21;;;;;;;6.72;2.83;;;;;;;;;;5054545;28;20452;-68
2022/05/24 09:59:57;;;;;;;4.38;2.50;;;;;;;;;;5054617;28;20025;-66
2022/05/24 10:02:27;;;;;;;9.45;2.28;;;;;;;;;;5054733;28;20021;-67
2022/05/24 10:04:54;;;;;;;8.98;2.83;;;;;;;;;;5053429;28;20033;-68
2022/05/24 10:07:25;;;;;;;3.38;2.17;;;;;;;;;;5054582;28;20017;-68
2022/05/24 10:10:07;;;;;;;8.20;2.60;;;;;;;;;;5054286;28;20020;-48
2022/05/24 10:12:44;;;;;;;9.48;2.75;;;;;;;;;;5054157;28;20041;-68
2022/05/24 10:15:22;;;;;;;5.60;2.58;;;;;;;;;;5054034;28;20489;-68
2022/05/24 10:18:02;;;;;;;5.25;2.75;;;;;;;;;;5053988;28;20029;-53
2022/05/24 10:20:28;;;;;;;4.93;2.67;;;;;;;;;;5035936;28;20460;-67
2022/05/24 10:22:57;;;;;;;7.30;2.90;;;;;;;;;;5053915;28;20487;-68
2022/05/24 10:25:55;;;;;;;8.55;3.92;;;;;;;;;;5053889;28;20032;-66
2022/05/24 10:28:21;;;;;;;9.25;2.83;;;;;;;;;;4953955;29;20035;-47
2022/05/24 10:31:03;;;;;;;6.10;2.72;;;;;;;;;;4953756;28;20098;-68
2022/05/24 10:39:38;;;;;;;4.60;2.58;;;;;;;;;;4953837;29;20065;-69
2022/05/24 10:42:06;;;;;;;5.35;2.78;;;;;;;;;;4953657;29;20034;-65
2022/05/24 10:44:45;;;;;;;5.10;2.92;;;;;;;;;;4953744;29;20043;-69
2022/05/24 10:47:29;;;;;;;7.55;3.50;;;;;;;;;;4953659;29;20102;-70
2022/05/24 10:50:01;;;;;;;5.97;3.13;;;;;;;;;;4953510;29;20035;-70
2022/05/24 10:52:33;;;;;;;4.72;2.97;;;;;;;;;;4953405;29;20038;-69
2022/05/24 10:55:04;;;;;;;7.55;3.33;;;;;;;;;;4953265;29;20038;-69
2022/05/24 10:57:53;;;;;;;12.85;3.75;;;;;;;;;;4953295;29;20365;-68
2022/05/24 11:00:23;;;;;;;15.55;9.38;;;;;;;;;;4943735;29;20035;-70
2022/05/24 11:03:09;;;;;;;22.08;12.63;;;;;;;;;;4954650;28;20031;-70
2022/05/24 11:05:43;;;;;;;9.18;5.63;;;;;;;;;;5035394;28;20509;-68
2022/05/24 11:08:27;;;;;;;14.93;7.38;;;;;;;;;;5053393;28;20025;-68
2022/05/24 11:10:53;;;;;;;12.05;6.53;;;;;;;;;;5053062;28;20056;-56
2022/05/24 11:13:23;;;;;;;10.25;4.72;;;;;;;;;;5053490;28;20025;-63
2022/05/24 11:15:52;;;;;;;8.90;5.87;;;;;;;;;;5052991;28;20021;-48
2022/05/24 11:18:23;;;;;;;12.82;7.13;;;;;;;;;;5053433;28;20032;-69
2022/05/24 11:21:10;;;;;;;10.13;5.75;;;;;;;;;;5053401;28;20354;-64
2022/05/24 11:23:41;;;;;;;10.38;6.88;;;;;;;;;;5053344;28;20076;-66
2022/05/24 11:26:14;;;;;;;8.95;4.47;;;;;;;;;;5053107;28;20029;-70
2022/05/24 11:28:47;;;;;;;9.05;6.20;;;;;;;;;;5053127;28;20477;-68
2022/05/24 11:31:35;;;;;;;7.13;3.85;;;;;;;;;;5052972;28;20036;-71
2022/05/24 11:34:03;;;;;;;15.73;6.90;;;;;;;;;;5053359;28;20104;-70
2022/05/24 11:36:38;;;;;;;7.47;5.10;;;;;;;;;;5053205;28;20032;-69
2022/05/24 11:39:10;;;;;;;10.82;5.53;;;;;;;;;;5053079;28;20013;-64
2022/05/24 11:41:37;;;;;;;10.50;5.10;;;;;;;;;;5052981;28;20044;-69
2022/05/24 11:44:08;;;;;;;31.92;18.55;;;;;;;;;;5053000;28;20033;-70
2022/05/24 11:46:34;;;;;;;;;;;;;;;;;;5053799;28;20029;-67
2022/05/24 11:49:04;;;;;;;8.52;5.28;;;;;;;;;;5053073;28;19950;-68
2022/05/24 11:51:33;;;;;;;5.90;4.05;;;;;;;;;;5052934;28;20115;-68
2022/05/24 11:54:01;;;;;;;13.00;8.00;;;;;;;;;;5052911;28;20027;-65
2022/05/24 11:56:28;;;;;;;9.18;6.03;;;;;;;;;;5052934;28;20074;-66
2022/05/24 11:59:05;;;;;;;8.15;3.60;;;;;;;;;;5052826;28;20021;-67
2022/05/24 12:01:35;;;;;;;5.68;2.78;;;;;;;;;;5052998;28;20025;-65
2022/05/24 12:09:56;;;;;;;8.60;3.20;;;;;;;;;;5052881;28;20044;-68
2022/05/24 12:12:29;;;;;;;8.93;3.50;;;;;;;;;;5052646;28;20041;-69
2022/05/24 12:15:19;;;;;;;9.00;3.75;;;;;;;;;;5052851;28;20029;-68
2022/05/24 12:17:46;;;;;;;13.13;4.57;;;;;;;;;;4952862;29;20042;-67
2022/05/24 12:20:31;;;;;;;7.30;4.35;;;;;;;;;;4952891;29;20239;-59
2022/05/24 12:23:14;;;;;;;9.93;4.85;;;;;;;;;;4952647;29;20042;-62
2022/05/24 12:25:58;;;;;;;8.45;3.63;;;;;;;;;;4952520;29;20081;-67
2022/05/24 12:28:34;;;;;;;10.80;5.60;;;;;;;;;;4953723;28;20047;-54
2022/05/24 12:31:01;;;;;;;14.35;8.73;;;;;;;;;;4956119;29;20058;-54
2022/05/24 12:33:27;;;;;;;19.17;9.35;;;;;;;;;;4956458;29;20026;-53
2022/05/24 12:36:05;;;;;;;12.10;7.45;;;;;;;;;;4955900;29;20160;-49
2022/05/24 12:38:32;;;;;;;18.42;10.93;;;;;;;;;;4956117;28;20029;-53
2022/05/24 12:41:07;;;;;;;12.85;5.80;;;;;;;;;;4955693;28;20043;-53
2022/05/24 12:43:33;;;;;;;10.05;3.78;;;;;;;;;;4956287;29;20066;-53
2022/05/24 12:46:01;;;;;;;8.68;4.95;;;;;;;;;;4955960;29;20032;-52
2022/05/24 12:48:39;;;;;;;7.88;3.45;;;;;;;;;;4955964;29;20060;-49
2022/05/24 12:51:07;;;;;;;6.90;3.00;;;;;;;;;;4955741;29;20075;-53
2022/05/24 12:53:34;;;;;;;16.05;6.47;;;;;;;;;;4957291;28;20058;-47
2022/05/24 12:56:02;;;;;;;10.93;7.40;;;;;;;;;;5056015;28;20032;-48
2022/05/24 12:58:36;;;;;;;10.10;5.63;;;;;;;;;;5055664;28;20025;-48
2022/05/24 13:01:20;;;;;;;15.55;9.43;;;;;;;;;;5055758;28;20036;-47
2022/05/24 13:03:55;;;;;;;12.70;7.13;;;;;;;;;;5055574;28;20611;-52
2022/05/24 13:06:27;;;;;;;7.88;4.25;;;;;;;;;;5055374;28;20515;-52
2022/05/24 13:09:13;;;;;;;9.27;6.00;;;;;;;;;;5055609;28;20473;-54
2022/05/24 13:11:40;;;;;;;7.25;4.50;;;;;;;;;;5055441;28;20512;-53
2022/05/24 13:14:06;;;;;;;10.00;4.38;;;;;;;;;;5055683;28;20040;-49
2022/05/24 13:16:34;;;;;;;6.05;3.00;;;;;;;;;;5055640;28;20021;-51
2022/05/24 13:19:02;;;;;;;5.53;3.30;;;;;;;;;;5055291;28;20068;-50
2022/05/24 13:21:31;;;;;;;8.55;2.80;;;;;;;;;;5055679;28;20025;-48
2022/05/24 13:24:16;;;;;;;7.93;3.42;;;;;;;;;;5055562;28;20499;-54
2022/05/24 13:27:02;;;;;;;8.45;3.75;;;;;;;;;;5055262;28;20056;-54
2022/05/24 13:29:29;;;;;;;5.80;3.03;;;;;;;;;;5055288;28;20393;-52
2022/05/24 13:34:58;;;;;;;41.00;29.17;;;;;;;;;;5055307;28;20090;-52
2022/05/24 13:37:25;;;;;;;85.00;47.13;;;;;;;;;;5055085;28;20078;-54
2022/05/24 13:39:56;;;;;;;23.60;14.43;;;;;;;;;;5054617;28;20116;-51
2022/05/24 13:42:25;;;;;;;7.60;4.28;;;;;;;;;;5054112;28;20388;-47
2022/05/24 13:45:10;;;;;;;9.85;3.55;;;;;;;;;;5048335;28;20167;-49
2022/05/24 13:47:37;;;;;;;7.88;3.75;;;;;;;;;;5050551;28;20028;-50
2022/05/24 13:50:30;;;;;;;8.35;3.58;;;;;;;;;;5050226;28;20067;-50
2022/05/24 13:53:00;;;;;;;7.30;3.60;;;;;;;;;;5045706;28;20036;-47
2022/05/24 13:55:27;;;;;;;;;;;;;;;;;;5050764;28;20037;-47
2022/05/24 13:58:22;;;;;;;13.32;6.57;;;;;;;;;;5049905;28;19908;-47
2022/05/24 14:00:52;;;;;;;8.85;3.63;;;;;;;;;;4945016;28;20425;-49
2022/05/24 14:03:18;;;;;;;7.55;3.10;;;;;;;;;;4945384;28;20038;-46
2022/05/24 14:05:48;;;;;;;10.32;6.90;;;;;;;;;;4945208;28;20053;-48
2022/05/24 14:08:14;;;;;;;19.40;9.95;;;;;;;;;;4945354;28;20030;-48
2022/05/24 14:10:41;;;;;;;37.53;20.42;;;;;;;;;;4944127;28;20174;-47
2022/05/24 14:13:10;;;;;;;12.85;6.55;;;;;;;;;;4944813;28;20030;-52
2022/05/24 14:15:40;;;;;;;12.00;6.53;;;;;;;;;;4945442;28;20105;-49
2022/05/24 14:18:09;;;;;;;9.82;5.10;;;;;;;;;;4945086;28;20043;-49
2022/05/24 14:20:36;;;;;;;29.90;12.55;;;;;;;;;;4945177;28;20038;-55
2022/05/24 14:23:02;;;;;;;214.38;191.30;;;;;;;;;;4945578;28;20577;-45
2022/05/24 14:25:28;;;;;;;35.05;22.77;;;;;;;;;;4945200;28;20411;-50
2022/05/24 14:27:54;;;;;;;55.78;42.25;;;;;;;;;;4945310;28;20057;-63
2022/05/24 14:30:21;;;;;;;53.85;36.33;;;;;;;;;;4945266;28;20298;-46
2022/05/24 14:32:47;;;;;;;82.05;59.47;;;;;;;;;;4944176;28;20114;-50
2022/05/24 14:35:13;;;;;;;199.05;75.93;;;;;;;;;;4945316;28;20042;-51
2022/05/24 14:37:39;;;;;;;13.45;7.72;;;;;;;;;;5010817;28;20040;-51
2022/05/24 14:40:06;;;;;;;129.38;105.05;;;;;;;;;;5049758;28;20024;-46
2022/05/24 14:42:33;;;;;;;28.20;16.00;;;;;;;;;;5049969;28;20025;-48
2022/05/24 14:45:01;;;;;;;108.57;82.32;;;;;;;;;;5049615;28;20036;-48
2022/05/24 14:47:28;;;;;;;91.07;68.38;;;;;;;;;;5047362;28;20027;-47
2022/05/24 14:49:54;;;;;;;34.67;18.75;;;;;;;;;;5049975;28;20033;-49
2022/05/24 14:52:25;;;;;;;11.00;4.72;;;;;;;;;;5049319;28;20374;-53
2022/05/24 14:54:50;;;;;;;;;;;;;;;;;;5073697;28;20031;-46
2022/05/24 14:57:18;;;;;;;13.23;5.18;;;;;;;;;;5073283;28;19917;-46
2022/05/24 14:59:47;;;;;;;19.15;7.70;;;;;;;;;;5073365;28;20495;-54
2022/05/24 15:02:14;;;;;;;8.13;3.78;;;;;;;;;;5070314;28;20031;-55
2022/05/24 15:04:40;;;;;;;14.50;7.70;;;;;;;;;;5073213;28;20079;-55
2022/05/24 15:15:25;;;;;;;10.50;4.80;;;;;;;;;;5060541;28;20044;-55
2022/05/24 15:17:52;;;;;;;9.15;3.30;;;;;;;;;;5052568;28;20424;-55
2022/05/24 15:20:19;;;;;;;4.07;3.08;;;;;;;;;;5052615;28;20068;-54
2022/05/24 15:22:45;;;;;;;9.20;4.13;;;;;;;;;;5052544;28;20104;-55
2022/05/24 15:25:13;;;;;;;7.78;3.20;;;;;;;;;;5052704;28;20033;-46
2022/05/24 15:27:39;;;;;;;5.22;3.15;;;;;;;;;;5052676;28;20024;-53
2022/05/24 15:30:07;;;;;;;6.85;4.95;;;;;;;;;;5052822;28;20025;-54
2022/05/24 15:32:35;;;;;;;5.00;3.10;;;;;;;;;;5053105;28;20053;-46
2022/05/24 15:35:01;;;;;;;5.28;3.40;;;;;;;;;;5053235;28;20017;-55
2022/05/24 15:37:27;;;;;;;10.68;5.78;;;;;;;;;;5052671;28;20025;-54
2022/05/24 15:39:53;;;;;;;7.85;4.50;;;;;;;;;;5052535;28;20021;-54
2022/05/24 15:42:21;;;;;;;7.35;3.30;;;;;;;;;;5052570;28;20032;-46
2022/05/24 15:44:47;;;;;;;6.47;3.22;;;;;;;;;;5051974;28;20078;-54
2022/05/24 15:47:13;;;;;;;10.43;3.38;;;;;;;;;;5052502;28;20465;-55